createdAt,value
2022-12-05T00:01:37.251Z,14.15
2022-12-05T00:06:40.481Z,14.07
2022-12-05T00:11:44.686Z,14.52
2022-12-05T00:16:46.112Z,14.57
2022-12-05T00:21:47.530Z,14.23
2022-12-05T00:26:49.084Z,15.32
2022-12-05T00:31:50.613Z,14.57
2022-12-05T00:36:52.090Z,14.95
2022-12-05T00:41:53.505Z,16.40
2022-12-05T00:46:54.878Z,15.23
2022-12-05T00:51:56.412Z,14.32
2022-12-05T00:56:57.851Z,14.23
2022-12-05T01:01:59.278Z,14.40
2022-12-05T01:07:00.642Z,15.43
2022-12-05T01:12:02.057Z,14.27
2022-12-05T01:17:03.818Z,14.05
2022-12-05T01:22:05.267Z,13.20
2022-12-05T01:27:06.692Z,13.93
2022-12-05T01:32:08.190Z,14.60
2022-12-05T01:37:09.658Z,12.85
2022-12-05T01:42:12.179Z,14.13
2022-12-05T01:47:17.484Z,14.35
2022-12-05T01:52:23.327Z,15.30
2022-12-05T01:57:25.394Z,14.27
2022-12-05T02:02:29.673Z,13.77
2022-12-05T02:07:32.183Z,14.00
2022-12-05T02:12:34.620Z,13.35
2022-12-05T02:17:54.097Z,14.45
2022-12-05T02:23:13.851Z,13.00
2022-12-05T02:28:33.915Z,12.27
2022-12-05T02:33:40.822Z,12.85
2022-12-05T02:39:11.271Z,13.20
2022-12-05T02:44:20.510Z,12.25
2022-12-05T02:49:26.290Z,12.38
2022-12-05T02:54:33.760Z,11.38
2022-12-05T02:59:35.908Z,11.48
2022-12-05T03:04:37.570Z,12.43
2022-12-05T03:09:44.682Z,11.57
2022-12-05T03:14:51.476Z,11.93
2022-12-05T03:20:06.872Z,10.77
2022-12-05T03:25:09.620Z,11.73
2022-12-05T03:30:15.143Z,10.82
2022-12-05T03:35:22.685Z,11.20
2022-12-05T03:40:49.043Z,10.38
2022-12-05T03:45:59.783Z,10.60
2022-12-05T03:51:05.820Z,10.40
2022-12-05T03:56:16.480Z,11.23
2022-12-05T04:01:21.466Z,10.40
2022-12-05T04:06:23.118Z,10.57
2022-12-05T04:11:27.399Z,11.68
2022-12-05T04:16:59.251Z,11.65
2022-12-05T04:22:00.639Z,11.05
2022-12-05T04:27:26.477Z,11.18
2022-12-05T04:32:37.239Z,12.20
2022-12-05T04:37:42.479Z,12.05
2022-12-05T04:42:47.147Z,11.35
2022-12-05T04:47:55.799Z,11.60
2022-12-05T04:52:59.301Z,11.38
2022-12-05T04:58:18.910Z,11.23
2022-12-05T05:03:30.274Z,12.00
2022-12-05T05:08:31.725Z,11.32
2022-12-05T05:13:33.098Z,11.57
2022-12-05T05:18:34.543Z,11.52
2022-12-05T05:23:35.901Z,11.30
2022-12-05T05:28:37.295Z,11.63
2022-12-05T05:33:38.762Z,11.27
2022-12-05T05:38:42.872Z,10.82
2022-12-05T05:43:45.287Z,10.60
2022-12-05T05:48:47.583Z,10.82
2022-12-05T05:53:49.691Z,11.87
2022-12-05T05:59:02.744Z,10.97
2022-12-05T06:09:07.720Z,11.05
2022-12-05T06:14:09.470Z,12.75
2022-12-05T06:19:10.892Z,11.23
2022-12-05T06:24:12.255Z,11.88
2022-12-05T06:29:13.855Z,11.70
2022-12-05T06:34:15.327Z,10.38
2022-12-05T06:39:16.772Z,10.68
2022-12-05T06:44:18.208Z,10.70
2022-12-05T06:49:19.638Z,11.05
2022-12-05T06:54:21.076Z,11.45
2022-12-05T06:59:22.524Z,10.75
2022-12-05T07:04:24.400Z,11.52
2022-12-05T07:09:44.630Z,11.73
2022-12-05T07:14:48.608Z,12.60
2022-12-05T07:19:52.534Z,12.50
2022-12-05T07:24:54.099Z,10.77
2022-12-05T07:29:56.312Z,11.35
2022-12-05T07:34:57.986Z,11.35
2022-12-05T07:39:59.509Z,11.10
2022-12-05T07:45:01.101Z,11.10
2022-12-05T07:50:02.591Z,10.80
2022-12-05T07:55:04.426Z,12.07
2022-12-05T08:00:06.767Z,11.05
2022-12-05T08:05:14.092Z,10.35
2022-12-05T08:10:15.545Z,10.13
2022-12-05T08:15:16.976Z,11.43
2022-12-05T08:20:18.503Z,10.80
2022-12-05T08:25:20.099Z,11.32
2022-12-05T08:30:21.619Z,10.75
2022-12-05T08:35:23.014Z,10.68
2022-12-05T08:40:24.469Z,11.38
2022-12-05T08:45:25.872Z,11.05
2022-12-05T08:50:27.253Z,10.25
2022-12-05T08:55:28.626Z,10.55
2022-12-05T09:00:30.032Z,9.57
2022-12-05T09:05:31.774Z,10.10
2022-12-05T09:10:33.708Z,9.77
2022-12-05T09:15:38.631Z,9.15
2022-12-05T09:20:40.095Z,9.18
2022-12-05T09:25:41.514Z,8.90
2022-12-05T09:30:43.750Z,9.50
2022-12-05T09:35:45.315Z,8.73
2022-12-05T09:40:56.399Z,8.25
2022-12-05T09:46:17.028Z,8.38
2022-12-05T09:51:18.555Z,8.02
2022-12-05T09:56:32.599Z,7.20
2022-12-05T10:01:43.958Z,7.55
2022-12-05T10:06:54.389Z,7.35
2022-12-05T10:12:13.851Z,7.38
2022-12-05T10:17:23.475Z,7.50
2022-12-05T10:22:27.631Z,7.28
2022-12-05T10:27:40.071Z,7.63
2022-12-05T10:32:53.315Z,7.90
2022-12-05T10:38:00.442Z,8.07
2022-12-05T10:43:02.047Z,7.72
2022-12-05T10:48:03.573Z,7.53
2022-12-05T10:53:06.424Z,6.75
2022-12-05T10:58:13.974Z,6.90
2022-12-05T11:03:26.449Z,6.65
2022-12-05T11:09:02.623Z,6.20
2022-12-05T11:14:23.798Z,7.18
2022-12-05T11:19:28.671Z,6.63
2022-12-05T11:24:31.360Z,5.88
2022-12-05T11:29:36.318Z,5.93
2022-12-05T11:34:42.626Z,6.30
2022-12-05T11:39:45.183Z,6.55
2022-12-05T11:44:46.514Z,5.88
2022-12-05T11:50:13.192Z,5.97
2022-12-05T11:55:20.017Z,6.03
2022-12-05T12:00:23.240Z,5.60
2022-12-05T12:10:38.238Z,5.63
2022-12-05T12:15:53.437Z,5.50
2022-12-05T12:21:20.618Z,5.78
2022-12-05T12:26:46.587Z,5.57
2022-12-05T12:32:33.114Z,5.40
2022-12-05T12:37:48.136Z,5.60
2022-12-05T12:42:56.609Z,5.72
2022-12-05T12:48:12.851Z,4.90
2022-12-05T12:53:39.068Z,4.97
2022-12-05T12:59:23.959Z,4.93
2022-12-05T13:04:31.855Z,4.38
2022-12-05T13:09:46.119Z,4.82
2022-12-05T13:14:53.463Z,4.43
2022-12-05T13:19:56.886Z,4.70
2022-12-05T13:24:58.546Z,4.60
2022-12-05T13:30:03.576Z,7.93
2022-12-05T13:35:11.374Z,5.72
2022-12-05T13:40:44.651Z,5.68
2022-12-05T13:51:13.367Z,5.68
2022-12-05T13:56:14.668Z,6.60
2022-12-05T14:01:25.946Z,8.48
2022-12-05T14:06:37.981Z,8.68
2022-12-05T14:11:39.559Z,8.60
2022-12-05T14:16:44.449Z,10.40
2022-12-05T14:21:49.891Z,9.13
2022-12-05T14:27:11.966Z,8.95
2022-12-05T14:32:16.523Z,10.18
2022-12-05T14:37:17.835Z,9.48
2022-12-05T14:42:27.349Z,9.23
2022-12-05T14:47:33.087Z,10.07
2022-12-05T14:52:34.705Z,10.75
2022-12-05T14:57:46.232Z,9.68
2022-12-05T15:02:51.208Z,9.93
2022-12-05T15:07:54.608Z,9.20
2022-12-05T15:13:11.478Z,9.95
2022-12-05T15:18:25.936Z,10.75
2022-12-05T15:23:42.562Z,9.10
2022-12-05T15:29:08.087Z,8.98
2022-12-05T15:34:20.572Z,9.30
2022-12-05T15:39:25.671Z,8.90
2022-12-05T15:44:34.235Z,8.65
2022-12-05T15:49:38.954Z,10.85
2022-12-05T15:54:41.380Z,10.57
2022-12-05T15:59:50.292Z,10.52
2022-12-05T16:04:58.150Z,10.35
2022-12-05T16:10:00.891Z,10.27
2022-12-05T16:20:24.025Z,11.15
2022-12-05T16:25:28.773Z,10.32
2022-12-05T17:31:13.756Z,8.00
2022-12-05T17:50:52.298Z,9.15
2022-12-05T17:56:05.004Z,8.70
2022-12-05T18:01:25.141Z,9.05
2022-12-05T18:06:35.855Z,9.13
2022-12-05T18:12:09.367Z,10.10
2022-12-05T18:17:22.612Z,8.95
2022-12-05T18:27:47.214Z,10.63
2022-12-05T18:33:42.806Z,9.43
2022-12-05T18:38:50.259Z,9.25
2022-12-05T18:43:51.994Z,9.95
2022-12-05T18:48:55.015Z,12.20
2022-12-05T18:53:59.584Z,11.45
2022-12-05T18:59:03.864Z,10.57
2022-12-05T19:04:07.571Z,8.30
2022-12-05T19:09:13.033Z,8.88
2022-12-05T19:14:16.623Z,8.70
2022-12-05T19:20:17.927Z,9.23
2022-12-05T19:50:41.728Z,8.85
2022-12-05T19:56:13.374Z,8.70
2022-12-05T20:01:21.898Z,9.25
2022-12-05T20:06:24.819Z,9.65
2022-12-05T20:11:28.877Z,8.73
2022-12-05T20:16:30.575Z,10.80
2022-12-05T20:21:34.086Z,9.23
2022-12-05T20:26:38.918Z,8.88
2022-12-05T20:31:42.670Z,8.30
2022-12-05T20:36:44.204Z,6.72
2022-12-05T20:41:46.312Z,7.20
2022-12-05T20:46:51.542Z,4.30
2022-12-05T20:51:53.669Z,3.83
2022-12-05T20:56:55.084Z,4.70
2022-12-05T21:01:56.499Z,4.38
2022-12-05T21:06:58.119Z,4.53
2022-12-05T21:11:59.579Z,4.60
2022-12-05T21:17:01.082Z,4.45
2022-12-05T21:22:02.517Z,4.63
2022-12-05T21:27:03.990Z,4.47
2022-12-05T21:32:05.454Z,4.28
2022-12-05T21:37:06.851Z,4.93
2022-12-05T21:42:08.255Z,4.70
2022-12-05T21:47:09.655Z,4.55
2022-12-05T21:52:11.035Z,4.57
2022-12-05T21:57:12.644Z,4.78
2022-12-05T22:02:14.107Z,4.47
2022-12-05T22:07:16.265Z,5.00
2022-12-05T22:12:17.841Z,4.28
2022-12-05T22:17:19.210Z,4.15
2022-12-05T22:22:20.570Z,4.40
2022-12-05T22:27:21.971Z,4.93
2022-12-05T22:32:23.702Z,4.50
2022-12-05T22:37:25.086Z,5.03
2022-12-05T22:42:27.067Z,5.05
2022-12-05T22:47:28.450Z,5.03
2022-12-05T22:52:29.824Z,4.43
2022-12-05T22:57:31.187Z,5.60
2022-12-05T23:02:32.627Z,5.30
2022-12-05T23:07:34.199Z,4.53
2022-12-05T23:12:35.654Z,4.30
2022-12-05T23:17:37.096Z,4.40
2022-12-05T23:22:38.450Z,4.07
2022-12-05T23:27:39.858Z,4.38
2022-12-05T23:32:41.337Z,4.40
2022-12-05T23:37:42.795Z,5.03
2022-12-05T23:42:44.323Z,6.60
2022-12-05T23:47:45.698Z,4.93
2022-12-05T23:52:47.061Z,4.85
2022-12-05T23:57:48.431Z,4.18
